sensor_id;sensor_type;location;lat;lon;timestamp;temperature;humidity
15156;DHT22;7678;50.058;8.306;2023-04-08T00:00:58;7.00;99.90
15156;DHT22;7678;50.058;8.306;2023-04-08T00:03:28;7.00;99.90
15156;DHT22;7678;50.058;8.306;2023-04-08T00:05:56;7.00;99.90
15156;DHT22;7678;50.058;8.306;2023-04-08T00:08:26;7.00;99.90
15156;DHT22;7678;50.058;8.306;2023-04-08T00:10:54;7.00;99.90
15156;DHT22;7678;50.058;8.306;2023-04-08T00:13:22;7.10;99.90
15156;DHT22;7678;50.058;8.306;2023-04-08T00:15:51;7.10;99.90
15156;DHT22;7678;50.058;8.306;2023-04-08T00:18:19;7.00;99.90
15156;DHT22;7678;50.058;8.306;2023-04-08T00:20:48;7.00;99.90
15156;DHT22;7678;50.058;8.306;2023-04-08T00:23:17;7.10;99.90
15156;DHT22;7678;50.058;8.306;2023-04-08T00:25:47;7.00;99.90
15156;DHT22;7678;50.058;8.306;2023-04-08T00:28:15;7.10;99.90
15156;DHT22;7678;50.058;8.306;2023-04-08T00:30:43;7.10;99.90
15156;DHT22;7678;50.058;8.306;2023-04-08T00:33:12;7.10;99.90
15156;DHT22;7678;50.058;8.306;2023-04-08T00:35:40;7.00;99.90
15156;DHT22;7678;50.058;8.306;2023-04-08T00:38:10;7.00;99.90
15156;DHT22;7678;50.058;8.306;2023-04-08T00:40:38;7.00;99.90
15156;DHT22;7678;50.058;8.306;2023-04-08T00:43:06;7.00;99.90
15156;DHT22;7678;50.058;8.306;2023-04-08T00:45:35;7.10;99.90
15156;DHT22;7678;50.058;8.306;2023-04-08T00:48:05;7.10;99.90
15156;DHT22;7678;50.058;8.306;2023-04-08T00:50:34;7.10;99.90
15156;DHT22;7678;50.058;8.306;2023-04-08T00:53:03;7.10;99.90
15156;DHT22;7678;50.058;8.306;2023-04-08T00:55:33;7.10;99.90
15156;DHT22;7678;50.058;8.306;2023-04-08T00:58:01;7.00;99.90
15156;DHT22;7678;50.058;8.306;2023-04-08T01:00:30;7.00;99.90
15156;DHT22;7678;50.058;8.306;2023-04-08T01:03:04;7.00;99.90
15156;DHT22;7678;50.058;8.306;2023-04-08T01:05:44;7.10;99.90
15156;DHT22;7678;50.058;8.306;2023-04-08T01:08:16;7.10;99.90
15156;DHT22;7678;50.058;8.306;2023-04-08T01:10:49;7.10;99.90
15156;DHT22;7678;50.058;8.306;2023-04-08T01:13:20;7.10;99.90
15156;DHT22;7678;50.058;8.306;2023-04-08T01:15:49;7.10;99.90
15156;DHT22;7678;50.058;8.306;2023-04-08T01:18:18;7.20;99.90
15156;DHT22;7678;50.058;8.306;2023-04-08T01:20:49;7.20;99.90
15156;DHT22;7678;50.058;8.306;2023-04-08T01:23:23;7.10;99.90
15156;DHT22;7678;50.058;8.306;2023-04-08T01:25:59;7.10;99.90
15156;DHT22;7678;50.058;8.306;2023-04-08T01:28:28;7.10;99.90
15156;DHT22;7678;50.058;8.306;2023-04-08T01:30:59;7.10;99.90
15156;DHT22;7678;50.058;8.306;2023-04-08T01:33:28;7.00;99.90
15156;DHT22;7678;50.058;8.306;2023-04-08T01:35:59;7.00;99.90
15156;DHT22;7678;50.058;8.306;2023-04-08T01:38:27;7.00;99.90
15156;DHT22;7678;50.058;8.306;2023-04-08T01:40:58;7.10;99.90
15156;DHT22;7678;50.058;8.306;2023-04-08T01:43:27;7.00;99.90
15156;DHT22;7678;50.058;8.306;2023-04-08T01:45:58;7.00;99.90
15156;DHT22;7678;50.058;8.306;2023-04-08T01:48:27;7.00;99.90
15156;DHT22;7678;50.058;8.306;2023-04-08T01:50:56;7.10;99.90
15156;DHT22;7678;50.058;8.306;2023-04-08T01:53:25;7.10;99.90
15156;DHT22;7678;50.058;8.306;2023-04-08T01:55:56;7.20;99.90
15156;DHT22;7678;50.058;8.306;2023-04-08T01:58:31;7.10;99.90
15156;DHT22;7678;50.058;8.306;2023-04-08T02:01:03;7.10;99.90
15156;DHT22;7678;50.058;8.306;2023-04-08T02:03:33;7.20;99.90
15156;DHT22;7678;50.058;8.306;2023-04-08T02:06:02;7.20;99.90
15156;DHT22;7678;50.058;8.306;2023-04-08T02:08:33;7.10;99.90
15156;DHT22;7678;50.058;8.306;2023-04-08T02:11:02;7.10;99.90
15156;DHT22;7678;50.058;8.306;2023-04-08T02:13:32;7.10;99.90
15156;DHT22;7678;50.058;8.306;2023-04-08T02:16:03;7.20;99.90
15156;DHT22;7678;50.058;8.306;2023-04-08T02:18:34;7.20;99.90
15156;DHT22;7678;50.058;8.306;2023-04-08T02:21:08;7.10;99.90
15156;DHT22;7678;50.058;8.306;2023-04-08T02:23:39;7.20;99.90
15156;DHT22;7678;50.058;8.306;2023-04-08T02:26:13;7.10;99.90
15156;DHT22;7678;50.058;8.306;2023-04-08T02:28:44;7.00;99.90
15156;DHT22;7678;50.058;8.306;2023-04-08T02:31:16;6.90;99.90
15156;DHT22;7678;50.058;8.306;2023-04-08T02:33:45;6.70;99.90
15156;DHT22;7678;50.058;8.306;2023-04-08T02:36:15;6.50;99.90
15156;DHT22;7678;50.058;8.306;2023-04-08T02:38:47;6.50;99.90
15156;DHT22;7678;50.058;8.306;2023-04-08T02:41:16;6.40;99.90
15156;DHT22;7678;50.058;8.306;2023-04-08T02:43:45;6.50;99.90
15156;DHT22;7678;50.058;8.306;2023-04-08T02:46:13;6.50;99.90
15156;DHT22;7678;50.058;8.306;2023-04-08T02:48:42;6.40;99.90
15156;DHT22;7678;50.058;8.306;2023-04-08T02:51:10;6.40;99.90
15156;DHT22;7678;50.058;8.306;2023-04-08T02:53:38;6.40;99.90
15156;DHT22;7678;50.058;8.306;2023-04-08T02:56:08;6.30;99.90
15156;DHT22;7678;50.058;8.306;2023-04-08T02:58:36;6.30;99.90
15156;DHT22;7678;50.058;8.306;2023-04-08T03:01:07;6.30;99.90
15156;DHT22;7678;50.058;8.306;2023-04-08T03:03:35;6.40;99.90
15156;DHT22;7678;50.058;8.306;2023-04-08T03:06:03;6.50;99.90
15156;DHT22;7678;50.058;8.306;2023-04-08T03:08:31;6.50;99.90
15156;DHT22;7678;50.058;8.306;2023-04-08T03:10:59;6.40;99.90
15156;DHT22;7678;50.058;8.306;2023-04-08T03:13:27;6.30;99.90
15156;DHT22;7678;50.058;8.306;2023-04-08T03:15:56;6.40;99.90
15156;DHT22;7678;50.058;8.306;2023-04-08T03:18:25;6.30;99.90
15156;DHT22;7678;50.058;8.306;2023-04-08T03:20:53;6.30;99.90
15156;DHT22;7678;50.058;8.306;2023-04-08T03:23:21;6.20;99.90
15156;DHT22;7678;50.058;8.306;2023-04-08T03:25:49;6.30;99.90
15156;DHT22;7678;50.058;8.306;2023-04-08T03:28:17;6.20;99.90
15156;DHT22;7678;50.058;8.306;2023-04-08T03:30:46;6.10;99.90
15156;DHT22;7678;50.058;8.306;2023-04-08T03:33:14;6.10;99.90
15156;DHT22;7678;50.058;8.306;2023-04-08T03:35:43;6.10;99.90
15156;DHT22;7678;50.058;8.306;2023-04-08T03:38:11;6.00;99.90
15156;DHT22;7678;50.058;8.306;2023-04-08T03:40:39;5.90;99.90
15156;DHT22;7678;50.058;8.306;2023-04-08T03:43:07;5.80;99.90
15156;DHT22;7678;50.058;8.306;2023-04-08T03:45:37;5.90;99.90
15156;DHT22;7678;50.058;8.306;2023-04-08T03:48:05;5.80;99.90
15156;DHT22;7678;50.058;8.306;2023-04-08T03:50:34;5.80;99.90
15156;DHT22;7678;50.058;8.306;2023-04-08T03:53:03;5.70;99.90
15156;DHT22;7678;50.058;8.306;2023-04-08T03:55:31;5.70;99.90
15156;DHT22;7678;50.058;8.306;2023-04-08T03:57:59;5.60;99.90
15156;DHT22;7678;50.058;8.306;2023-04-08T04:00:27;5.70;99.90
15156;DHT22;7678;50.058;8.306;2023-04-08T04:02:55;5.70;99.90
15156;DHT22;7678;50.058;8.306;2023-04-08T04:05:23;5.60;99.90
15156;DHT22;7678;50.058;8.306;2023-04-08T04:07:51;5.50;99.90
15156;DHT22;7678;50.058;8.306;2023-04-08T04:10:21;5.40;99.90
15156;DHT22;7678;50.058;8.306;2023-04-08T04:12:49;5.30;99.90
15156;DHT22;7678;50.058;8.306;2023-04-08T04:15:17;5.30;99.90
15156;DHT22;7678;50.058;8.306;2023-04-08T04:17:47;5.30;99.90
15156;DHT22;7678;50.058;8.306;2023-04-08T04:20:16;5.20;99.90
15156;DHT22;7678;50.058;8.306;2023-04-08T04:22:44;5.20;99.90
15156;DHT22;7678;50.058;8.306;2023-04-08T04:25:12;5.20;99.90
15156;DHT22;7678;50.058;8.306;2023-04-08T04:27:42;5.20;99.90
15156;DHT22;7678;50.058;8.306;2023-04-08T04:30:10;5.20;99.90
15156;DHT22;7678;50.058;8.306;2023-04-08T04:32:41;5.30;99.90
15156;DHT22;7678;50.058;8.306;2023-04-08T04:35:09;5.30;99.90
15156;DHT22;7678;50.058;8.306;2023-04-08T04:37:38;5.30;99.90
15156;DHT22;7678;50.058;8.306;2023-04-08T04:40:06;5.30;99.90
15156;DHT22;7678;50.058;8.306;2023-04-08T04:42:35;5.20;99.90
15156;DHT22;7678;50.058;8.306;2023-04-08T04:45:05;5.20;99.90
15156;DHT22;7678;50.058;8.306;2023-04-08T04:47:33;5.20;99.90
15156;DHT22;7678;50.058;8.306;2023-04-08T04:50:02;5.10;99.90
15156;DHT22;7678;50.058;8.306;2023-04-08T04:52:30;5.10;99.90
15156;DHT22;7678;50.058;8.306;2023-04-08T04:54:58;5.10;99.90
15156;DHT22;7678;50.058;8.306;2023-04-08T04:57:26;5.10;99.90
15156;DHT22;7678;50.058;8.306;2023-04-08T04:59:54;5.10;99.90
15156;DHT22;7678;50.058;8.306;2023-04-08T05:02:23;5.30;99.90
15156;DHT22;7678;50.058;8.306;2023-04-08T05:04:52;5.20;99.90
15156;DHT22;7678;50.058;8.306;2023-04-08T05:07:21;5.10;99.90
15156;DHT22;7678;50.058;8.306;2023-04-08T05:09:49;5.10;99.90
15156;DHT22;7678;50.058;8.306;2023-04-08T05:12:17;5.10;99.90
15156;DHT22;7678;50.058;8.306;2023-04-08T05:14:46;5.00;99.90
15156;DHT22;7678;50.058;8.306;2023-04-08T05:17:14;5.00;99.90
15156;DHT22;7678;50.058;8.306;2023-04-08T05:19:43;4.90;99.90
15156;DHT22;7678;50.058;8.306;2023-04-08T05:22:12;4.90;99.90
15156;DHT22;7678;50.058;8.306;2023-04-08T05:24:40;4.90;99.90
15156;DHT22;7678;50.058;8.306;2023-04-08T05:27:08;4.90;99.90
15156;DHT22;7678;50.058;8.306;2023-04-08T05:29:36;4.90;99.90
15156;DHT22;7678;50.058;8.306;2023-04-08T05:32:04;4.90;99.90
15156;DHT22;7678;50.058;8.306;2023-04-08T05:34:32;4.90;99.90
15156;DHT22;7678;50.058;8.306;2023-04-08T05:37:02;4.80;99.90
15156;DHT22;7678;50.058;8.306;2023-04-08T05:39:30;4.90;99.90
15156;DHT22;7678;50.058;8.306;2023-04-08T05:41:58;4.80;99.90
15156;DHT22;7678;50.058;8.306;2023-04-08T05:44:26;4.90;99.90
15156;DHT22;7678;50.058;8.306;2023-04-08T05:46:55;4.80;99.90
15156;DHT22;7678;50.058;8.306;2023-04-08T05:49:23;4.90;99.90
15156;DHT22;7678;50.058;8.306;2023-04-08T05:51:52;4.90;99.90
15156;DHT22;7678;50.058;8.306;2023-04-08T05:54:21;5.00;99.90
15156;DHT22;7678;50.058;8.306;2023-04-08T05:56:49;5.00;99.90
15156;DHT22;7678;50.058;8.306;2023-04-08T05:59:17;5.10;99.90
15156;DHT22;7678;50.058;8.306;2023-04-08T06:01:45;5.10;99.90
15156;DHT22;7678;50.058;8.306;2023-04-08T06:04:14;5.20;99.90
15156;DHT22;7678;50.058;8.306;2023-04-08T06:06:43;5.20;99.90
15156;DHT22;7678;50.058;8.306;2023-04-08T06:09:11;5.30;99.90
15156;DHT22;7678;50.058;8.306;2023-04-08T06:11:41;5.40;99.90
15156;DHT22;7678;50.058;8.306;2023-04-08T06:14:09;5.40;99.90
15156;DHT22;7678;50.058;8.306;2023-04-08T06:16:37;5.50;99.90
15156;DHT22;7678;50.058;8.306;2023-04-08T06:19:05;5.50;99.90
15156;DHT22;7678;50.058;8.306;2023-04-08T06:21:33;5.50;99.90
15156;DHT22;7678;50.058;8.306;2023-04-08T06:24:02;5.40;99.90
15156;DHT22;7678;50.058;8.306;2023-04-08T06:26:30;5.40;99.90
15156;DHT22;7678;50.058;8.306;2023-04-08T06:29:00;5.40;99.90
15156;DHT22;7678;50.058;8.306;2023-04-08T06:31:28;5.40;99.90
15156;DHT22;7678;50.058;8.306;2023-04-08T06:33:57;5.40;99.90
15156;DHT22;7678;50.058;8.306;2023-04-08T06:36:25;5.40;99.90
15156;DHT22;7678;50.058;8.306;2023-04-08T06:38:54;5.50;99.90
15156;DHT22;7678;50.058;8.306;2023-04-08T06:41:22;5.50;99.90
15156;DHT22;7678;50.058;8.306;2023-04-08T06:43:50;5.60;99.90
15156;DHT22;7678;50.058;8.306;2023-04-08T06:46:19;5.70;99.90
15156;DHT22;7678;50.058;8.306;2023-04-08T06:48:48;5.80;99.90
15156;DHT22;7678;50.058;8.306;2023-04-08T06:51:16;5.90;99.90
15156;DHT22;7678;50.058;8.306;2023-04-08T06:53:44;5.90;99.90
15156;DHT22;7678;50.058;8.306;2023-04-08T06:56:13;5.90;99.90
15156;DHT22;7678;50.058;8.306;2023-04-08T06:58:41;6.00;99.90
15156;DHT22;7678;50.058;8.306;2023-04-08T07:01:09;6.10;99.90
15156;DHT22;7678;50.058;8.306;2023-04-08T07:03:39;6.20;99.90
15156;DHT22;7678;50.058;8.306;2023-04-08T07:06:07;6.30;99.90
15156;DHT22;7678;50.058;8.306;2023-04-08T07:08:35;6.50;99.90
15156;DHT22;7678;50.058;8.306;2023-04-08T07:11:03;6.50;99.90
15156;DHT22;7678;50.058;8.306;2023-04-08T07:13:31;6.70;99.90
15156;DHT22;7678;50.058;8.306;2023-04-08T07:15:59;6.90;99.90
15156;DHT22;7678;50.058;8.306;2023-04-08T07:18:27;6.90;99.90
15156;DHT22;7678;50.058;8.306;2023-04-08T07:20:57;7.00;99.90
15156;DHT22;7678;50.058;8.306;2023-04-08T07:23:26;7.00;99.90
15156;DHT22;7678;50.058;8.306;2023-04-08T07:25:54;7.10;99.90
15156;DHT22;7678;50.058;8.306;2023-04-08T07:28:22;7.10;99.90
15156;DHT22;7678;50.058;8.306;2023-04-08T07:30:51;7.30;99.90
15156;DHT22;7678;50.058;8.306;2023-04-08T07:33:19;7.40;99.90
15156;DHT22;7678;50.058;8.306;2023-04-08T07:35:47;7.40;99.90
15156;DHT22;7678;50.058;8.306;2023-04-08T07:38:16;7.50;99.90
15156;DHT22;7678;50.058;8.306;2023-04-08T07:40:45;7.50;99.90
15156;DHT22;7678;50.058;8.306;2023-04-08T07:43:13;7.70;99.90
15156;DHT22;7678;50.058;8.306;2023-04-08T07:45:41;7.80;99.90
15156;DHT22;7678;50.058;8.306;2023-04-08T07:48:09;7.80;99.90
15156;DHT22;7678;50.058;8.306;2023-04-08T07:50:37;7.90;99.90
15156;DHT22;7678;50.058;8.306;2023-04-08T07:53:27;7.90;99.90
15156;DHT22;7678;50.058;8.306;2023-04-08T07:55:55;8.00;99.90
15156;DHT22;7678;50.058;8.306;2023-04-08T07:58:24;8.10;99.90
15156;DHT22;7678;50.058;8.306;2023-04-08T08:00:55;8.20;99.90
15156;DHT22;7678;50.058;8.306;2023-04-08T08:03:24;8.40;99.90
15156;DHT22;7678;50.058;8.306;2023-04-08T08:05:53;8.30;99.90
15156;DHT22;7678;50.058;8.306;2023-04-08T08:08:29;8.40;99.90
15156;DHT22;7678;50.058;8.306;2023-04-08T08:11:00;8.50;99.90
15156;DHT22;7678;50.058;8.306;2023-04-08T08:13:28;8.60;99.90
15156;DHT22;7678;50.058;8.306;2023-04-08T08:15:56;8.60;99.90
15156;DHT22;7678;50.058;8.306;2023-04-08T08:18:24;8.70;99.90
15156;DHT22;7678;50.058;8.306;2023-04-08T08:20:56;8.80;99.90
15156;DHT22;7678;50.058;8.306;2023-04-08T08:23:24;8.90;99.90
15156;DHT22;7678;50.058;8.306;2023-04-08T08:25:59;8.90;99.90
15156;DHT22;7678;50.058;8.306;2023-04-08T08:28:28;8.80;99.90
15156;DHT22;7678;50.058;8.306;2023-04-08T08:30:56;8.60;99.90
15156;DHT22;7678;50.058;8.306;2023-04-08T08:33:24;8.70;99.90
15156;DHT22;7678;50.058;8.306;2023-04-08T08:35:52;8.70;99.90
15156;DHT22;7678;50.058;8.306;2023-04-08T08:38:24;8.70;99.90
15156;DHT22;7678;50.058;8.306;2023-04-08T08:40:54;8.80;99.90
15156;DHT22;7678;50.058;8.306;2023-04-08T08:43:24;8.80;99.90
15156;DHT22;7678;50.058;8.306;2023-04-08T08:45:53;8.90;99.90
15156;DHT22;7678;50.058;8.306;2023-04-08T08:48:22;8.90;99.90
15156;DHT22;7678;50.058;8.306;2023-04-08T08:50:51;8.70;99.90
15156;DHT22;7678;50.058;8.306;2023-04-08T08:53:28;8.80;99.90
15156;DHT22;7678;50.058;8.306;2023-04-08T08:56:00;8.50;99.90
15156;DHT22;7678;50.058;8.306;2023-04-08T08:58:39;8.50;99.90
15156;DHT22;7678;50.058;8.306;2023-04-08T09:01:29;8.40;99.90
15156;DHT22;7678;50.058;8.306;2023-04-08T09:04:13;8.40;99.90
15156;DHT22;7678;50.058;8.306;2023-04-08T09:06:43;8.20;99.90
15156;DHT22;7678;50.058;8.306;2023-04-08T09:09:16;8.20;99.90
15156;DHT22;7678;50.058;8.306;2023-04-08T09:11:45;8.20;99.90
15156;DHT22;7678;50.058;8.306;2023-04-08T09:14:23;8.20;99.90
15156;DHT22;7678;50.058;8.306;2023-04-08T09:16:52;8.30;99.90
15156;DHT22;7678;50.058;8.306;2023-04-08T09:19:23;8.40;99.90
15156;DHT22;7678;50.058;8.306;2023-04-08T09:22:04;8.40;99.90
15156;DHT22;7678;50.058;8.306;2023-04-08T09:24:34;8.30;99.90
15156;DHT22;7678;50.058;8.306;2023-04-08T09:27:03;8.20;99.90
15156;DHT22;7678;50.058;8.306;2023-04-08T09:29:34;8.30;99.90
15156;DHT22;7678;50.058;8.306;2023-04-08T09:32:06;8.20;99.90
15156;DHT22;7678;50.058;8.306;2023-04-08T09:34:35;8.30;99.90
15156;DHT22;7678;50.058;8.306;2023-04-08T09:37:04;8.20;99.90
15156;DHT22;7678;50.058;8.306;2023-04-08T09:39:33;8.10;99.90
15156;DHT22;7678;50.058;8.306;2023-04-08T09:42:09;8.00;99.90
15156;DHT22;7678;50.058;8.306;2023-04-08T09:45:01;8.00;99.90
15156;DHT22;7678;50.058;8.306;2023-04-08T09:48:09;8.10;99.90
15156;DHT22;7678;50.058;8.306;2023-04-08T09:50:46;8.20;99.90
15156;DHT22;7678;50.058;8.306;2023-04-08T09:53:29;8.30;99.90
15156;DHT22;7678;50.058;8.306;2023-04-08T09:56:12;8.30;99.90
15156;DHT22;7678;50.058;8.306;2023-04-08T09:58:58;8.30;99.90
15156;DHT22;7678;50.058;8.306;2023-04-08T10:01:38;8.40;99.90
15156;DHT22;7678;50.058;8.306;2023-04-08T10:04:15;8.60;99.90
15156;DHT22;7678;50.058;8.306;2023-04-08T10:06:51;8.70;99.90
15156;DHT22;7678;50.058;8.306;2023-04-08T10:09:21;8.70;99.90
15156;DHT22;7678;50.058;8.306;2023-04-08T10:11:50;8.70;99.90
15156;DHT22;7678;50.058;8.306;2023-04-08T10:14:21;8.70;99.90
15156;DHT22;7678;50.058;8.306;2023-04-08T10:24:31;9.00;99.90
15156;DHT22;7678;50.058;8.306;2023-04-08T10:27:37;9.30;99.90
15156;DHT22;7678;50.058;8.306;2023-04-08T10:30:39;9.40;99.90
15156;DHT22;7678;50.058;8.306;2023-04-08T10:33:20;9.50;99.90
15156;DHT22;7678;50.058;8.306;2023-04-08T10:35:59;9.60;99.90
15156;DHT22;7678;50.058;8.306;2023-04-08T10:38:28;9.70;99.90
15156;DHT22;7678;50.058;8.306;2023-04-08T10:40:57;9.80;99.90
15156;DHT22;7678;50.058;8.306;2023-04-08T10:43:32;9.80;99.90
15156;DHT22;7678;50.058;8.306;2023-04-08T10:46:00;9.90;99.90
15156;DHT22;7678;50.058;8.306;2023-04-08T10:48:28;9.70;99.90
15156;DHT22;7678;50.058;8.306;2023-04-08T10:51:00;9.90;99.90
15156;DHT22;7678;50.058;8.306;2023-04-08T10:53:31;10.00;99.90
15156;DHT22;7678;50.058;8.306;2023-04-08T10:56:03;10.00;99.90
15156;DHT22;7678;50.058;8.306;2023-04-08T10:58:32;10.00;99.90
15156;DHT22;7678;50.058;8.306;2023-04-08T11:01:04;10.00;99.90
15156;DHT22;7678;50.058;8.306;2023-04-08T11:03:34;10.00;99.90
15156;DHT22;7678;50.058;8.306;2023-04-08T11:06:16;10.10;99.90
15156;DHT22;7678;50.058;8.306;2023-04-08T11:08:45;10.00;99.90
15156;DHT22;7678;50.058;8.306;2023-04-08T11:11:13;10.00;99.90
15156;DHT22;7678;50.058;8.306;2023-04-08T11:13:44;10.00;99.90
15156;DHT22;7678;50.058;8.306;2023-04-08T11:16:20;10.20;99.90
15156;DHT22;7678;50.058;8.306;2023-04-08T11:18:50;10.10;99.90
15156;DHT22;7678;50.058;8.306;2023-04-08T11:21:19;10.20;99.90
15156;DHT22;7678;50.058;8.306;2023-04-08T11:23:48;10.50;99.90
15156;DHT22;7678;50.058;8.306;2023-04-08T11:26:18;10.60;99.90
15156;DHT22;7678;50.058;8.306;2023-04-08T11:28:46;10.70;99.90
15156;DHT22;7678;50.058;8.306;2023-04-08T11:31:17;10.80;99.90
15156;DHT22;7678;50.058;8.306;2023-04-08T11:33:52;10.70;99.90
15156;DHT22;7678;50.058;8.306;2023-04-08T11:36:23;10.80;99.90
15156;DHT22;7678;50.058;8.306;2023-04-08T11:38:53;11.10;99.90
15156;DHT22;7678;50.058;8.306;2023-04-08T11:41:21;11.10;99.90
15156;DHT22;7678;50.058;8.306;2023-04-08T11:43:53;11.10;99.90
15156;DHT22;7678;50.058;8.306;2023-04-08T11:46:22;11.20;99.90
15156;DHT22;7678;50.058;8.306;2023-04-08T11:49:02;11.10;99.90
15156;DHT22;7678;50.058;8.306;2023-04-08T11:51:31;11.40;99.90
15156;DHT22;7678;50.058;8.306;2023-04-08T11:54:03;11.90;99.90
15156;DHT22;7678;50.058;8.306;2023-04-08T11:56:43;11.60;99.90
15156;DHT22;7678;50.058;8.306;2023-04-08T11:59:12;11.40;99.90
15156;DHT22;7678;50.058;8.306;2023-04-08T12:01:41;11.30;99.90
15156;DHT22;7678;50.058;8.306;2023-04-08T12:04:10;11.50;99.90
15156;DHT22;7678;50.058;8.306;2023-04-08T12:06:39;11.50;99.90
15156;DHT22;7678;50.058;8.306;2023-04-08T12:09:09;11.70;99.90
15156;DHT22;7678;50.058;8.306;2023-04-08T12:11:37;11.70;99.90
15156;DHT22;7678;50.058;8.306;2023-04-08T12:14:05;11.70;99.90
15156;DHT22;7678;50.058;8.306;2023-04-08T12:16:33;11.40;99.90
15156;DHT22;7678;50.058;8.306;2023-04-08T12:19:02;11.60;99.90
15156;DHT22;7678;50.058;8.306;2023-04-08T12:21:30;11.50;99.90
15156;DHT22;7678;50.058;8.306;2023-04-08T12:24:00;11.70;99.90
15156;DHT22;7678;50.058;8.306;2023-04-08T12:26:29;11.60;99.90
15156;DHT22;7678;50.058;8.306;2023-04-08T12:28:57;11.60;99.90
15156;DHT22;7678;50.058;8.306;2023-04-08T12:31:25;11.60;99.90
15156;DHT22;7678;50.058;8.306;2023-04-08T12:33:53;11.60;99.90
15156;DHT22;7678;50.058;8.306;2023-04-08T12:36:22;11.50;99.90
15156;DHT22;7678;50.058;8.306;2023-04-08T12:38:50;11.50;99.90
15156;DHT22;7678;50.058;8.306;2023-04-08T12:41:19;11.40;99.90
15156;DHT22;7678;50.058;8.306;2023-04-08T12:43:47;11.40;99.90
15156;DHT22;7678;50.058;8.306;2023-04-08T12:46:15;11.70;99.90
15156;DHT22;7678;50.058;8.306;2023-04-08T12:48:43;11.80;99.90
15156;DHT22;7678;50.058;8.306;2023-04-08T12:51:12;11.90;99.90
15156;DHT22;7678;50.058;8.306;2023-04-08T12:53:40;12.10;99.90
15156;DHT22;7678;50.058;8.306;2023-04-08T12:56:08;12.00;99.90
15156;DHT22;7678;50.058;8.306;2023-04-08T12:58:38;11.90;97.70
15156;DHT22;7678;50.058;8.306;2023-04-08T13:01:06;12.20;99.80
15156;DHT22;7678;50.058;8.306;2023-04-08T13:03:34;12.30;98.70
15156;DHT22;7678;50.058;8.306;2023-04-08T13:06:02;12.10;99.90
15156;DHT22;7678;50.058;8.306;2023-04-08T13:08:30;12.20;99.90
15156;DHT22;7678;50.058;8.306;2023-04-08T13:10:58;12.40;99.40
15156;DHT22;7678;50.058;8.306;2023-04-08T13:13:26;12.40;98.10
15156;DHT22;7678;50.058;8.306;2023-04-08T13:15:56;12.10;98.40
15156;DHT22;7678;50.058;8.306;2023-04-08T13:18:24;12.00;98.40
15156;DHT22;7678;50.058;8.306;2023-04-08T13:20:52;11.90;99.80
15156;DHT22;7678;50.058;8.306;2023-04-08T13:23:20;12.30;99.90
15156;DHT22;7678;50.058;8.306;2023-04-08T13:25:48;12.40;99.90
15156;DHT22;7678;50.058;8.306;2023-04-08T13:28:17;12.20;99.90
15156;DHT22;7678;50.058;8.306;2023-04-08T13:30:44;12.40;99.90
15156;DHT22;7678;50.058;8.306;2023-04-08T13:33:14;12.40;99.90
15156;DHT22;7678;50.058;8.306;2023-04-08T13:35:42;12.30;99.90
15156;DHT22;7678;50.058;8.306;2023-04-08T13:38:10;12.40;99.90
15156;DHT22;7678;50.058;8.306;2023-04-08T13:40:39;12.50;99.90
15156;DHT22;7678;50.058;8.306;2023-04-08T13:43:07;12.30;99.90
15156;DHT22;7678;50.058;8.306;2023-04-08T13:45:35;12.20;99.90
15156;DHT22;7678;50.058;8.306;2023-04-08T13:48:07;12.40;99.90
15156;DHT22;7678;50.058;8.306;2023-04-08T13:50:49;12.40;99.90
15156;DHT22;7678;50.058;8.306;2023-04-08T13:53:18;12.20;99.90
15156;DHT22;7678;50.058;8.306;2023-04-08T13:55:46;12.40;99.90
15156;DHT22;7678;50.058;8.306;2023-04-08T13:58:14;12.40;99.90
15156;DHT22;7678;50.058;8.306;2023-04-08T14:00:49;12.70;99.90
15156;DHT22;7678;50.058;8.306;2023-04-08T14:03:18;13.00;99.90
15156;DHT22;7678;50.058;8.306;2023-04-08T14:05:46;12.90;98.80
15156;DHT22;7678;50.058;8.306;2023-04-08T14:08:17;12.90;99.90
15156;DHT22;7678;50.058;8.306;2023-04-08T14:10:51;12.80;99.90
15156;DHT22;7678;50.058;8.306;2023-04-08T14:13:19;12.50;99.90
15156;DHT22;7678;50.058;8.306;2023-04-08T14:15:47;12.30;99.90
15156;DHT22;7678;50.058;8.306;2023-04-08T14:18:15;12.20;99.90
15156;DHT22;7678;50.058;8.306;2023-04-08T14:20:44;12.00;99.90
15156;DHT22;7678;50.058;8.306;2023-04-08T14:23:11;12.10;99.90
15156;DHT22;7678;50.058;8.306;2023-04-08T14:25:41;12.00;99.90
15156;DHT22;7678;50.058;8.306;2023-04-08T14:28:09;11.90;99.90
15156;DHT22;7678;50.058;8.306;2023-04-08T14:30:37;11.90;99.90
15156;DHT22;7678;50.058;8.306;2023-04-08T14:33:05;11.90;99.90
15156;DHT22;7678;50.058;8.306;2023-04-08T14:35:33;11.60;99.90
15156;DHT22;7678;50.058;8.306;2023-04-08T14:38:02;11.50;99.90
15156;DHT22;7678;50.058;8.306;2023-04-08T14:40:30;11.50;99.90
15156;DHT22;7678;50.058;8.306;2023-04-08T14:42:59;11.50;99.90
15156;DHT22;7678;50.058;8.306;2023-04-08T14:45:27;11.50;99.90
15156;DHT22;7678;50.058;8.306;2023-04-08T14:47:55;11.30;99.90
15156;DHT22;7678;50.058;8.306;2023-04-08T14:50:23;11.30;99.90
15156;DHT22;7678;50.058;8.306;2023-04-08T14:52:52;11.20;99.90
15156;DHT22;7678;50.058;8.306;2023-04-08T14:55:20;11.30;99.90
15156;DHT22;7678;50.058;8.306;2023-04-08T14:57:48;11.40;99.90
15156;DHT22;7678;50.058;8.306;2023-04-08T15:00:18;11.50;99.90
15156;DHT22;7678;50.058;8.306;2023-04-08T15:02:46;11.70;99.90
15156;DHT22;7678;50.058;8.306;2023-04-08T15:05:14;11.70;99.90
15156;DHT22;7678;50.058;8.306;2023-04-08T15:07:42;11.90;99.90
15156;DHT22;7678;50.058;8.306;2023-04-08T15:10:10;11.80;99.90
15156;DHT22;7678;50.058;8.306;2023-04-08T15:12:38;11.90;99.90
15156;DHT22;7678;50.058;8.306;2023-04-08T15:15:07;12.00;99.90
15156;DHT22;7678;50.058;8.306;2023-04-08T15:17:37;11.90;99.90
15156;DHT22;7678;50.058;8.306;2023-04-08T15:20:06;12.00;99.90
15156;DHT22;7678;50.058;8.306;2023-04-08T15:22:34;12.00;99.90
15156;DHT22;7678;50.058;8.306;2023-04-08T15:25:02;12.10;99.90
15156;DHT22;7678;50.058;8.306;2023-04-08T15:27:31;11.90;99.90
15156;DHT22;7678;50.058;8.306;2023-04-08T15:30:03;11.80;99.90
15156;DHT22;7678;50.058;8.306;2023-04-08T15:32:31;11.80;99.90
15156;DHT22;7678;50.058;8.306;2023-04-08T15:35:01;11.90;99.90
15156;DHT22;7678;50.058;8.306;2023-04-08T15:37:29;11.80;99.90
15156;DHT22;7678;50.058;8.306;2023-04-08T15:39:57;12.00;99.90
15156;DHT22;7678;50.058;8.306;2023-04-08T15:42:25;12.30;99.90
15156;DHT22;7678;50.058;8.306;2023-04-08T15:44:53;12.20;99.90
15156;DHT22;7678;50.058;8.306;2023-04-08T15:47:21;11.90;99.90
15156;DHT22;7678;50.058;8.306;2023-04-08T15:49:51;12.00;99.90
15156;DHT22;7678;50.058;8.306;2023-04-08T15:52:20;11.80;99.90
15156;DHT22;7678;50.058;8.306;2023-04-08T15:54:48;11.80;99.90
15156;DHT22;7678;50.058;8.306;2023-04-08T15:57:16;11.80;99.90
15156;DHT22;7678;50.058;8.306;2023-04-08T15:59:44;12.00;99.90
15156;DHT22;7678;50.058;8.306;2023-04-08T16:02:12;11.90;99.90
15156;DHT22;7678;50.058;8.306;2023-04-08T16:04:40;11.70;99.90
15156;DHT22;7678;50.058;8.306;2023-04-08T16:07:08;11.70;99.90
15156;DHT22;7678;50.058;8.306;2023-04-08T16:09:38;11.60;99.90
15156;DHT22;7678;50.058;8.306;2023-04-08T16:12:05;11.50;99.90
15156;DHT22;7678;50.058;8.306;2023-04-08T16:14:34;11.60;99.90
15156;DHT22;7678;50.058;8.306;2023-04-08T16:17:02;11.60;99.90
15156;DHT22;7678;50.058;8.306;2023-04-08T16:19:30;11.60;99.90
15156;DHT22;7678;50.058;8.306;2023-04-08T16:21:58;11.40;99.90